Portada
METAR-TAF:

METAR-TAF

Aeropuertos :

Porto Alegre, Río Grande del Sur, Brasil

Aeropuerto Internacional Salgado Filho

latitud: 30-00S, longitud: 051-11W, altitud: 3 m

Observación

El informe se hizo hace 54 minutos, a las 08:00 UTC
Viento 9 kt del oeste-noroeste
Temperatura 12°C
Humedad 76%
Presión 1017 hPa
Visibilidad 10 km o más
sin nubes por debajo de 1500 m y sin presencia de cumulonimbus.

METAR: SBPA 270800Z 29009KT CAVOK 12/08 Q1017

Hora: 05:54 (08:54 UTC)

Pronóstico

El informe se hizo hace 5 horas y 54 minutos, a las 03:00 UTC
Pronóstico válido del 27 a las 06 UTC al 28 a las 06 UTC
Viento 8 kt del oeste-noroeste
Visibilidad 10 km o más
sin nubes por debajo de 1500 m y sin presencia de cumulonimbus.
Temporalmente
del 27 a las 14 UTC al 27 a las 22 UTC
Viento 15 kt del oeste

TAF: SBPA 270300Z 2706/2806 30008KT CAVOK TX18/2718Z TN07/2806Z TEMPO 2714/2722 28015KT RMK PDJ

Observaciones y pronósticos meteorológicos de más de 4000 aeropuertos (mensajes METAR y TAF).

Los puntos amarillos y rojos representan las estaciones disponibles.

Ponga el ratón en el punto deseado para ver el nombre de la estación.

Haga clic para ver las observaciones y los pronósticos meteorológicos.

Para cambiar el mapa : haga clic en los botones verdes con una cruz de color negro para hacer un zoom, en el botón verde con un guión para alejar o en las flechas verdes para mapas adyacentes.


METAR-TAF: